Time;durP1;ratioP1;P1;durP2;ratioP2;P2;SDS_P1;SDS_P2;PMS_P1;PMS_P2;Temp;Humidity;BMP_temperature;BMP_pressure;BME280_temperature;BME280_humidity;BME280_pressure;Samples;Min_cycle;Max_cycle;Signal;HPM_P1;HPM_P2
2022/05/29 00:01:44;;;;;;;16.05;6.30;;;;;;;;;;4911054;28;20417;-63
2022/05/29 00:04:09;;;;;;;19.77;6.95;;;;;;;;;;4911046;28;20449;-62
2022/05/29 00:06:39;;;;;;;19.55;6.05;;;;;;;;;;4910961;28;20345;-62
2022/05/29 00:09:07;;;;;;;12.73;5.43;;;;;;;;;;4912225;28;20026;-62
2022/05/29 00:11:32;;;;;;;14.88;5.75;;;;;;;;;;4909191;28;20489;-62
2022/05/29 00:14:00;;;;;;;13.48;5.50;;;;;;;;;;4910311;28;20495;-63
2022/05/29 00:16:27;;;;;;;14.55;5.15;;;;;;;;;;4911684;28;20477;-62
2022/05/29 00:18:53;;;;;;;19.17;6.05;;;;;;;;;;4913682;28;20380;-62
2022/05/29 00:21:18;;;;;;;14.98;5.90;;;;;;;;;;4914239;28;20428;-62
2022/05/29 00:23:43;;;;;;;14.88;5.65;;;;;;;;;;4915039;28;20042;-63
2022/05/29 00:26:09;;;;;;;15.32;5.47;;;;;;;;;;4914227;28;20432;-63
2022/05/29 00:28:36;;;;;;;12.38;5.43;;;;;;;;;;4912657;28;20323;-62
2022/05/29 00:31:01;;;;;;;14.00;5.82;;;;;;;;;;4914234;28;20350;-62
2022/05/29 00:33:26;;;;;;;12.88;6.07;;;;;;;;;;4913262;28;20031;-63
2022/05/29 00:35:52;;;;;;;13.65;5.25;;;;;;;;;;4912291;28;20377;-62
2022/05/29 00:38:18;;;;;;;11.82;5.47;;;;;;;;;;4913832;28;20425;-62
2022/05/29 00:41:17;;;;;;;12.07;5.82;;;;;;;;;;4913541;28;20461;-62
2022/05/29 00:43:43;;;;;;;15.48;5.65;;;;;;;;;;4914153;28;20339;-63
2022/05/29 00:46:09;;;;;;;15.05;5.45;;;;;;;;;;4913648;28;20533;-62
2022/05/29 00:48:34;;;;;;;16.05;5.05;;;;;;;;;;4913629;28;20520;-62
2022/05/29 00:51:01;;;;;;;15.68;5.47;;;;;;;;;;4913401;28;20418;-62
2022/05/29 00:53:28;;;;;;;11.90;5.78;;;;;;;;;;4913255;28;20461;-62
2022/05/29 00:55:58;;;;;;;12.13;4.63;;;;;;;;;;4911702;28;20476;-63
2022/05/29 00:58:24;;;;;;;13.70;4.40;;;;;;;;;;4912108;28;20429;-62
2022/05/29 01:00:51;;;;;;;10.93;4.88;;;;;;;;;;4911723;28;20027;-62
2022/05/29 01:03:16;;;;;;;10.90;5.03;;;;;;;;;;4913413;28;20405;-62
2022/05/29 01:05:42;;;;;;;14.73;4.75;;;;;;;;;;4913473;28;20409;-62
2022/05/29 01:08:23;;;;;;;12.50;4.85;;;;;;;;;;4913551;28;20602;-62
2022/05/29 01:10:49;;;;;;;12.45;4.82;;;;;;;;;;4911582;28;20450;-63
2022/05/29 01:13:36;;;;;;;9.68;4.50;;;;;;;;;;4912967;28;20394;-62
2022/05/29 01:16:26;;;;;;;14.60;5.15;;;;;;;;;;4911680;28;20373;-62
2022/05/29 01:19:17;;;;;;;16.33;4.78;;;;;;;;;;4913511;28;20430;-62
2022/05/29 01:22:07;;;;;;;11.27;4.47;;;;;;;;;;4913153;28;20438;-63
2022/05/29 01:24:51;;;;;;;11.13;4.32;;;;;;;;;;4914456;28;20481;-62
2022/05/29 01:27:37;;;;;;;8.48;4.07;;;;;;;;;;4913131;28;20416;-62
2022/05/29 01:30:13;;;;;;;13.55;3.92;;;;;;;;;;4913832;28;20323;-62
2022/05/29 01:32:43;;;;;;;11.93;4.20;;;;;;;;;;4911456;28;20402;-62
2022/05/29 01:35:13;;;;;;;10.70;4.57;;;;;;;;;;4914143;28;20338;-62
2022/05/29 01:37:59;;;;;;;10.77;4.38;;;;;;;;;;4912645;28;20446;-62
2022/05/29 01:40:38;;;;;;;11.10;3.90;;;;;;;;;;4913131;28;20366;-63
2022/05/29 01:43:03;;;;;;;13.73;4.53;;;;;;;;;;4910879;28;20457;-62
2022/05/29 01:45:53;;;;;;;7.22;3.95;;;;;;;;;;4912765;28;20432;-61
2022/05/29 01:48:22;;;;;;;9.23;4.70;;;;;;;;;;4912905;28;20365;-62
2022/05/29 01:50:52;;;;;;;;;;;;;;;;;;4912128;28;20026;-63
2022/05/29 01:53:31;;;;;;;7.78;3.55;;;;;;;;;;4910671;28;20329;-62
2022/05/29 01:56:00;;;;;;;9.82;3.92;;;;;;;;;;4910987;28;20433;-62
2022/05/29 01:58:31;;;;;;;10.43;3.65;;;;;;;;;;4910812;28;20354;-63
2022/05/29 02:00:59;;;;;;;11.27;4.22;;;;;;;;;;4911018;28;20334;-63
2022/05/29 02:03:31;;;;;;;8.23;3.70;;;;;;;;;;4912574;28;20504;-62
2022/05/29 02:06:06;;;;;;;10.60;4.38;;;;;;;;;;4912705;28;20163;-62
2022/05/29 02:08:36;;;;;;;5.60;3.30;;;;;;;;;;4910796;28;20381;-62
2022/05/29 02:11:12;;;;;;;10.73;4.40;;;;;;;;;;4912244;28;20464;-63
2022/05/29 02:13:43;;;;;;;7.82;3.47;;;;;;;;;;4912813;28;20477;-62
2022/05/29 02:16:13;;;;;;;11.88;4.40;;;;;;;;;;4911149;28;20453;-63
2022/05/29 02:18:49;;;;;;;10.75;4.07;;;;;;;;;;4910671;28;20354;-62
2022/05/29 02:21:41;;;;;;;8.88;3.60;;;;;;;;;;4911224;28;20369;-62
2022/05/29 02:24:12;;;;;;;7.72;3.45;;;;;;;;;;4911087;28;20438;-62
2022/05/29 02:26:41;;;;;;;7.60;3.53;;;;;;;;;;4915443;28;20492;-62
2022/05/29 02:29:10;;;;;;;;;;;;;;;;;;4931918;28;20416;-62
2022/05/29 02:31:44;;;;;;;;;;;;;;;;;;4930084;28;20340;-62
2022/05/29 02:34:17;;;;;;;8.80;3.88;;;;;;;;;;4930899;28;20309;-62
2022/05/29 02:36:58;;;;;;;11.13;4.00;;;;;;;;;;4929037;28;20111;-61
2022/05/29 02:40:01;;;;;;;9.93;3.90;;;;;;;;;;4930153;28;20326;-61
2022/05/29 02:43:18;;;;;;;7.40;3.60;;;;;;;;;;4925339;28;20596;-63
2022/05/29 02:46:02;;;;;;;8.43;3.83;;;;;;;;;;4913207;28;20038;-62
2022/05/29 02:48:32;;;;;;;8.65;4.47;;;;;;;;;;4930820;28;20099;-63
2022/05/29 02:51:36;;;;;;;10.52;4.30;;;;;;;;;;4945404;28;20147;-63
2022/05/29 02:54:02;;;;;;;7.72;3.92;;;;;;;;;;4945458;28;20476;-63
2022/05/29 02:56:27;;;;;;;10.00;4.03;;;;;;;;;;4931040;28;20589;-62
2022/05/29 02:58:55;;;;;;;10.25;4.07;;;;;;;;;;4930264;28;20342;-62
2022/05/29 03:01:23;;;;;;;7.85;3.35;;;;;;;;;;4945177;28;20436;-62
2022/05/29 03:04:13;;;;;;;9.30;3.70;;;;;;;;;;4931288;28;20481;-62
2022/05/29 03:07:02;;;;;;;8.35;3.47;;;;;;;;;;4930825;28;20368;-62
2022/05/29 03:09:43;;;;;;;5.95;2.65;;;;;;;;;;4945980;28;20361;-62
2022/05/29 03:12:25;;;;;;;9.25;3.80;;;;;;;;;;4930393;28;20322;-62
2022/05/29 03:14:58;;;;;;;6.97;3.13;;;;;;;;;;4930250;28;20377;-62
2022/05/29 03:17:42;;;;;;;7.50;2.85;;;;;;;;;;4930254;28;20311;-62
2022/05/29 03:20:14;;;;;;;7.13;3.00;;;;;;;;;;4930254;28;20516;-62
2022/05/29 03:23:08;;;;;;;7.32;3.33;;;;;;;;;;4944858;28;20597;-62
2022/05/29 03:25:39;;;;;;;7.85;3.08;;;;;;;;;;4932360;28;20456;-63
2022/05/29 03:28:09;;;;;;;7.22;2.97;;;;;;;;;;4946804;28;20465;-62
2022/05/29 03:30:39;;;;;;;6.15;2.83;;;;;;;;;;4949898;28;20448;-61
2022/05/29 03:33:07;;;;;;;7.32;3.42;;;;;;;;;;4949604;28;20396;-63
2022/05/29 03:35:35;;;;;;;8.57;3.72;;;;;;;;;;4949554;28;20475;-62
2022/05/29 03:38:03;;;;;;;8.65;3.53;;;;;;;;;;4948199;28;20101;-63
2022/05/29 03:40:32;;;;;;;8.50;3.53;;;;;;;;;;4950347;28;20111;-62
2022/05/29 03:42:57;;;;;;;7.72;3.17;;;;;;;;;;4931740;28;20376;-62
2022/05/29 03:45:23;;;;;;;11.70;3.13;;;;;;;;;;4950045;28;20398;-62
2022/05/29 03:47:48;;;;;;;5.78;3.00;;;;;;;;;;4949175;28;20397;-62
2022/05/29 03:50:16;;;;;;;6.93;3.38;;;;;;;;;;4949178;28;20113;-62
2022/05/29 03:52:43;;;;;;;6.45;3.10;;;;;;;;;;4952055;28;20412;-62
2022/05/29 03:55:09;;;;;;;8.05;3.58;;;;;;;;;;4952916;28;20096;-62
2022/05/29 03:57:35;;;;;;;6.70;2.67;;;;;;;;;;4953070;28;20344;-61
2022/05/29 04:00:01;;;;;;;6.18;2.80;;;;;;;;;;4953873;28;20311;-62
2022/05/29 04:02:26;;;;;;;6.05;2.88;;;;;;;;;;4951630;28;20381;-62
2022/05/29 04:04:51;;;;;;;7.75;3.20;;;;;;;;;;4953388;28;20325;-62
2022/05/29 04:07:17;;;;;;;4.93;2.63;;;;;;;;;;4953116;28;20317;-62
2022/05/29 04:12:26;;;;;;;8.18;2.95;;;;;;;;;;4954102;28;20519;-62
2022/05/29 04:14:51;;;;;;;7.85;3.22;;;;;;;;;;4953408;28;20402;-63
2022/05/29 04:17:18;;;;;;;7.85;3.50;;;;;;;;;;4952318;28;20461;-62
2022/05/29 04:19:46;;;;;;;6.32;2.63;;;;;;;;;;4952919;28;20033;-61
2022/05/29 04:22:19;;;;;;;8.55;3.53;;;;;;;;;;4953537;28;20412;-63
2022/05/29 04:24:45;;;;;;;5.70;2.80;;;;;;;;;;4935367;28;20100;-62
2022/05/29 04:27:12;;;;;;;8.32;2.75;;;;;;;;;;4936477;28;20042;-63
2022/05/29 04:29:37;;;;;;;4.72;2.65;;;;;;;;;;4913743;28;20341;-62
2022/05/29 04:34:47;;;;;;;5.18;2.50;;;;;;;;;;4914648;28;20439;-61
2022/05/29 04:37:12;;;;;;;7.57;3.15;;;;;;;;;;4914130;28;20030;-62
2022/05/29 04:39:38;;;;;;;5.07;2.30;;;;;;;;;;4914402;28;20529;-62
2022/05/29 04:42:04;;;;;;;9.32;3.00;;;;;;;;;;4912377;28;20062;-62
2022/05/29 04:44:31;;;;;;;5.75;2.92;;;;;;;;;;4914374;28;20315;-63
2022/05/29 04:47:00;;;;;;;6.32;2.60;;;;;;;;;;4913368;28;20400;-62
2022/05/29 04:49:26;;;;;;;4.82;2.80;;;;;;;;;;4915275;28;20426;-62
2022/05/29 04:51:51;;;;;;;6.38;2.80;;;;;;;;;;4913262;28;20505;-63
2022/05/29 04:54:17;;;;;;;5.43;2.92;;;;;;;;;;4913662;28;21454;-62
2022/05/29 04:56:46;;;;;;;5.18;2.67;;;;;;;;;;4913656;28;20361;-63
2022/05/29 04:59:11;;;;;;;7.97;2.85;;;;;;;;;;4914191;28;20421;-62
2022/05/29 05:01:36;;;;;;;8.00;3.17;;;;;;;;;;4913211;28;20418;-63
2022/05/29 05:04:02;;;;;;;6.93;2.88;;;;;;;;;;4913435;28;20424;-62
2022/05/29 05:06:28;;;;;;;6.03;3.10;;;;;;;;;;4914126;28;20450;-62
2022/05/29 05:08:53;;;;;;;4.90;2.85;;;;;;;;;;4913124;28;20090;-62
2022/05/29 05:11:19;;;;;;;7.63;3.30;;;;;;;;;;4913874;28;20576;-62
2022/05/29 05:13:44;;;;;;;8.07;3.17;;;;;;;;;;4912789;28;20349;-62
2022/05/29 05:16:09;;;;;;;6.68;3.30;;;;;;;;;;4913091;28;20501;-63
2022/05/29 05:18:35;;;;;;;6.18;3.15;;;;;;;;;;4912916;28;20382;-63
2022/05/29 05:21:04;;;;;;;5.55;2.72;;;;;;;;;;4913822;28;20488;-62
2022/05/29 05:23:30;;;;;;;5.28;2.58;;;;;;;;;;4913296;28;20465;-64
2022/05/29 05:25:55;;;;;;;4.97;2.58;;;;;;;;;;4912937;28;20485;-63
2022/05/29 05:28:20;;;;;;;5.45;2.53;;;;;;;;;;4912858;28;20369;-63
2022/05/29 05:30:47;;;;;;;5.63;2.58;;;;;;;;;;4912649;28;20533;-62
2022/05/29 05:33:13;;;;;;;6.03;2.72;;;;;;;;;;4913228;28;20061;-62
2022/05/29 05:35:39;;;;;;;5.63;2.83;;;;;;;;;;4912745;28;20031;-62
2022/05/29 05:38:05;;;;;;;5.57;3.10;;;;;;;;;;4910962;28;20477;-62
2022/05/29 05:40:30;;;;;;;5.20;2.53;;;;;;;;;;4912585;28;20402;-65
2022/05/29 05:42:56;;;;;;;4.55;2.63;;;;;;;;;;4912799;28;20165;-62
2022/05/29 05:45:21;;;;;;;5.82;2.47;;;;;;;;;;4912750;28;20452;-62
2022/05/29 05:47:46;;;;;;;5.90;2.75;;;;;;;;;;4912761;28;20445;-62
2022/05/29 05:50:12;;;;;;;6.22;2.75;;;;;;;;;;4912462;28;20066;-62
2022/05/29 05:52:38;;;;;;;7.05;2.85;;;;;;;;;;4912615;28;20393;-64
2022/05/29 05:55:05;;;;;;;7.32;2.95;;;;;;;;;;4912144;28;20437;-62
2022/05/29 05:57:30;;;;;;;6.50;2.83;;;;;;;;;;4913333;28;20417;-62
2022/05/29 05:59:56;;;;;;;8.40;3.17;;;;;;;;;;4913886;28;20460;-62
2022/05/29 06:02:23;;;;;;;5.72;2.22;;;;;;;;;;4912639;28;20061;-62
2022/05/29 06:04:49;;;;;;;5.60;2.83;;;;;;;;;;4912003;28;20485;-62
2022/05/29 06:07:14;;;;;;;7.03;2.92;;;;;;;;;;4912519;28;20436;-63
2022/05/29 06:09:40;;;;;;;4.68;2.47;;;;;;;;;;4913022;28;20350;-63
2022/05/29 06:12:07;;;;;;;5.57;3.13;;;;;;;;;;4912647;28;20410;-63
2022/05/29 06:14:34;;;;;;;6.75;2.95;;;;;;;;;;4911228;28;20026;-64
2022/05/29 06:17:00;;;;;;;4.57;2.47;;;;;;;;;;4910825;28;20389;-63
2022/05/29 06:19:26;;;;;;;7.68;2.90;;;;;;;;;;4912191;28;20402;-62
2022/05/29 06:21:51;;;;;;;6.88;3.28;;;;;;;;;;4913793;28;20377;-62
2022/05/29 06:24:16;;;;;;;4.95;2.38;;;;;;;;;;4911794;28;20389;-62
2022/05/29 06:26:42;;;;;;;5.00;2.38;;;;;;;;;;4911955;28;20417;-63
2022/05/29 06:29:08;;;;;;;5.00;2.53;;;;;;;;;;4911613;28;20397;-63
2022/05/29 06:31:33;;;;;;;5.65;2.85;;;;;;;;;;4912003;28;20449;-62
2022/05/29 06:33:58;;;;;;;6.20;2.13;;;;;;;;;;4894184;28;20342;-63
2022/05/29 06:36:25;;;;;;;4.40;2.05;;;;;;;;;;4912316;28;20445;-62
2022/05/29 06:38:52;;;;;;;5.40;2.45;;;;;;;;;;4910590;28;20370;-62
2022/05/29 06:41:20;;;;;;;5.53;2.33;;;;;;;;;;4911488;28;20042;-63
2022/05/29 06:43:45;;;;;;;5.03;2.40;;;;;;;;;;4911607;28;20331;-62
2022/05/29 06:46:12;;;;;;;4.93;2.60;;;;;;;;;;4912037;28;20050;-62
2022/05/29 06:48:38;;;;;;;6.32;2.85;;;;;;;;;;4911677;28;20528;-64
2022/05/29 06:51:15;;;;;;;4.95;2.30;;;;;;;;;;4912165;28;20457;-64
2022/05/29 06:53:41;;;;;;;6.47;2.17;;;;;;;;;;4912909;28;20416;-63
2022/05/29 06:56:08;;;;;;;4.55;2.40;;;;;;;;;;4911575;28;20456;-62
2022/05/29 06:58:34;;;;;;;3.60;1.85;;;;;;;;;;4912505;28;20049;-62
2022/05/29 07:09:19;;;;;;;4.32;2.08;;;;;;;;;;4911451;28;20488;-64
2022/05/29 07:11:45;;;;;;;6.22;2.38;;;;;;;;;;4911244;28;20419;-63
2022/05/29 07:14:11;;;;;;;4.90;2.08;;;;;;;;;;4911025;28;20532;-63
2022/05/29 07:16:37;;;;;;;9.18;2.65;;;;;;;;;;4911452;28;20465;-62
2022/05/29 07:19:04;;;;;;;5.28;2.47;;;;;;;;;;4911194;28;20034;-63
2022/05/29 07:21:33;;;;;;;6.47;2.72;;;;;;;;;;4911290;28;20434;-63
2022/05/29 07:23:58;;;;;;;3.80;1.90;;;;;;;;;;4911312;28;20035;-63
2022/05/29 07:26:24;;;;;;;4.28;2.22;;;;;;;;;;4913790;28;20453;-64
2022/05/29 07:28:49;;;;;;;3.85;2.00;;;;;;;;;;4914044;28;20089;-62
2022/05/29 07:31:14;;;;;;;4.47;1.90;;;;;;;;;;4915466;28;20433;-62
2022/05/29 07:33:40;;;;;;;5.38;1.98;;;;;;;;;;4915364;28;20571;-62
2022/05/29 07:36:09;;;;;;;7.43;2.15;;;;;;;;;;4915049;28;20469;-62
2022/05/29 07:38:35;;;;;;;6.43;2.15;;;;;;;;;;4914724;28;20453;-63
2022/05/29 07:41:00;;;;;;;4.80;2.40;;;;;;;;;;4915224;28;20342;-62
2022/05/29 07:43:26;;;;;;;5.65;1.75;;;;;;;;;;4915168;28;20096;-63
2022/05/29 07:45:58;;;;;;;6.18;1.83;;;;;;;;;;4898125;28;20397;-63
2022/05/29 07:48:25;;;;;;;5.88;2.05;;;;;;;;;;4926795;28;20487;-63
2022/05/29 07:50:51;;;;;;;5.05;2.20;;;;;;;;;;4914555;28;20345;-62
2022/05/29 07:53:17;;;;;;;4.57;2.15;;;;;;;;;;4915247;28;20325;-63
2022/05/29 07:55:43;;;;;;;4.97;2.17;;;;;;;;;;4912990;28;20061;-63
2022/05/29 07:58:09;;;;;;;3.22;1.88;;;;;;;;;;4914526;28;20528;-63
2022/05/29 08:00:35;;;;;;;6.22;1.90;;;;;;;;;;4915259;28;20035;-62
2022/05/29 08:03:01;;;;;;;5.13;2.13;;;;;;;;;;4914551;28;20438;-63
2022/05/29 08:05:26;;;;;;;4.43;1.95;;;;;;;;;;4914294;28;20030;-63
2022/05/29 08:07:52;;;;;;;3.97;1.73;;;;;;;;;;4914137;28;20537;-62
2022/05/29 08:10:20;;;;;;;3.33;1.55;;;;;;;;;;4914199;28;20424;-62
2022/05/29 08:12:45;;;;;;;4.88;1.98;;;;;;;;;;4914608;28;20434;-62
2022/05/29 08:15:11;;;;;;;3.13;1.80;;;;;;;;;;4915969;28;20402;-64
2022/05/29 08:17:37;;;;;;;5.65;1.95;;;;;;;;;;4914666;28;20418;-63
2022/05/29 08:20:03;;;;;;;2.67;1.65;;;;;;;;;;4914760;28;20513;-63
2022/05/29 08:22:28;;;;;;;3.90;1.95;;;;;;;;;;4914168;28;20470;-62
2022/05/29 08:33:26;;;;;;;4.00;1.80;;;;;;;;;;4914772;28;20496;-63
2022/05/29 08:36:04;;;;;;;3.33;1.80;;;;;;;;;;4912890;28;20377;-63
2022/05/29 08:38:31;;;;;;;8.00;2.55;;;;;;;;;;4911908;28;20330;-62
2022/05/29 08:41:08;;;;;;;4.60;1.40;;;;;;;;;;4913994;28;20090;-62
2022/05/29 08:43:48;;;;;;;4.55;2.00;;;;;;;;;;4913829;28;20422;-64
2022/05/29 08:46:23;;;;;;;2.90;1.52;;;;;;;;;;4914344;28;20418;-64
2022/05/29 08:48:51;;;;;;;3.20;1.73;;;;;;;;;;4913484;28;20374;-62
2022/05/29 08:51:38;;;;;;;5.22;1.92;;;;;;;;;;4913875;28;20370;-63
2022/05/29 08:54:12;;;;;;;7.05;2.47;;;;;;;;;;4913173;28;20422;-63
2022/05/29 08:56:45;;;;;;;4.00;1.30;;;;;;;;;;4912638;28;20351;-63
2022/05/29 08:59:40;;;;;;;4.07;1.55;;;;;;;;;;4912499;28;20334;-64
2022/05/29 09:02:23;;;;;;;3.85;1.95;;;;;;;;;;4913657;28;20326;-63
2022/05/29 09:04:53;;;;;;;2.95;1.45;;;;;;;;;;4913654;28;20402;-62
2022/05/29 09:07:19;;;;;;;4.53;1.65;;;;;;;;;;4911771;28;20454;-63
2022/05/29 09:09:49;;;;;;;3.60;1.58;;;;;;;;;;4912353;28;20369;-63
2022/05/29 09:12:38;;;;;;;5.53;1.75;;;;;;;;;;4913185;28;20460;-62
2022/05/29 09:15:32;;;;;;;3.28;1.58;;;;;;;;;;4911929;28;20027;-64
2022/05/29 09:18:02;;;;;;;5.40;2.08;;;;;;;;;;4898560;28;20266;-63
2022/05/29 09:20:37;;;;;;;5.70;1.33;;;;;;;;;;4912505;28;20038;-63
2022/05/29 09:23:04;;;;;;;6.15;2.03;;;;;;;;;;4912860;28;20366;-63
2022/05/29 09:25:39;;;;;;;4.60;1.48;;;;;;;;;;4911200;28;20422;-63
2022/05/29 09:28:11;;;;;;;4.68;1.70;;;;;;;;;;4912608;28;20480;-63
2022/05/29 09:30:38;;;;;;;3.90;1.83;;;;;;;;;;4912661;28;20035;-63
2022/05/29 09:33:24;;;;;;;3.72;1.40;;;;;;;;;;4913122;28;20366;-63
2022/05/29 09:35:56;;;;;;;4.43;2.50;;;;;;;;;;4912603;28;20422;-62
2022/05/29 09:38:34;;;;;;;2.90;1.20;;;;;;;;;;4911272;28;20333;-63
2022/05/29 09:41:10;;;;;;;4.45;1.90;;;;;;;;;;4911200;28;20346;-62
2022/05/29 09:43:35;;;;;;;3.92;1.33;;;;;;;;;;4911946;28;20319;-63
2022/05/29 09:46:21;;;;;;;4.00;1.92;;;;;;;;;;4910643;28;20366;-62
2022/05/29 09:51:51;;;;;;;3.83;1.17;;;;;;;;;;4717284;28;5001710;-63
2022/05/29 09:54:24;;;;;;;2.88;1.58;;;;;;;;;;4913020;28;20310;-63
2022/05/29 09:56:50;;;;;;;2.67;1.20;;;;;;;;;;4912325;28;20366;-62
2022/05/29 09:59:18;;;;;;;4.82;1.70;;;;;;;;;;4912108;28;20470;-62
2022/05/29 10:01:46;;;;;;;3.93;1.47;;;;;;;;;;4911662;28;20337;-63
2022/05/29 10:04:22;;;;;;;3.27;1.47;;;;;;;;;;4912362;28;20027;-63
2022/05/29 10:06:53;;;;;;;3.85;1.50;;;;;;;;;;4911807;28;20339;-66
2022/05/29 10:09:21;;;;;;;3.58;1.23;;;;;;;;;;4910982;28;20448;-63
2022/05/29 10:11:51;;;;;;;3.45;1.75;;;;;;;;;;4912034;28;20417;-63
2022/05/29 10:14:25;;;;;;;5.22;1.67;;;;;;;;;;4912532;28;20422;-63
2022/05/29 10:16:54;;;;;;;3.75;1.40;;;;;;;;;;4911931;28;20370;-63
2022/05/29 10:19:43;;;;;;;2.85;1.40;;;;;;;;;;4910610;28;20462;-64
2022/05/29 10:22:38;;;;;;;4.13;1.27;;;;;;;;;;4911997;28;20413;-62
2022/05/29 10:25:19;;;;;;;3.05;1.40;;;;;;;;;;4911688;28;20434;-63
2022/05/29 10:27:50;;;;;;;2.42;1.25;;;;;;;;;;4910235;28;20062;-63
2022/05/29 10:30:38;;;;;;;4.13;1.30;;;;;;;;;;4911283;28;20453;-63
2022/05/29 10:33:14;;;;;;;2.72;1.10;;;;;;;;;;4910214;28;20542;-62
2022/05/29 10:35:41;;;;;;;3.55;1.50;;;;;;;;;;4910400;28;20030;-63
2022/05/29 10:38:18;;;;;;;3.17;1.73;;;;;;;;;;4912889;28;20338;-62
2022/05/29 10:40:44;;;;;;;2.30;1.30;;;;;;;;;;4911719;28;20405;-62
2022/05/29 10:43:10;;;;;;;3.13;1.15;;;;;;;;;;4911980;28;20346;-63
2022/05/29 10:45:46;;;;;;;5.82;1.63;;;;;;;;;;4910352;28;20333;-63
2022/05/29 10:48:20;;;;;;;7.13;1.75;;;;;;;;;;4909885;28;20057;-63
2022/05/29 10:51:01;;;;;;;2.05;1.48;;;;;;;;;;4911762;28;20053;-63
2022/05/29 10:53:42;;;;;;;5.85;1.45;;;;;;;;;;4909400;28;20434;-63
2022/05/29 10:56:20;;;;;;;2.05;0.98;;;;;;;;;;4893323;28;20366;-62
2022/05/29 10:59:05;;;;;;;2.88;1.40;;;;;;;;;;4911687;28;20442;-63
2022/05/29 11:04:46;;;;;;;2.45;1.15;;;;;;;;;;4911698;28;20568;-65
2022/05/29 11:07:30;;;;;;;2.22;1.15;;;;;;;;;;4910486;28;20345;-63
2022/05/29 11:10:04;;;;;;;6.35;1.00;;;;;;;;;;4912595;28;20504;-63
2022/05/29 11:13:07;;;;;;;1.95;1.15;;;;;;;;;;4910475;28;20327;-62
2022/05/29 11:15:39;;;;;;;3.05;1.50;;;;;;;;;;4910660;28;20295;-63
2022/05/29 11:18:29;;;;;;;2.08;0.93;;;;;;;;;;4909799;28;20425;-63
2022/05/29 11:21:05;;;;;;;4.90;1.20;;;;;;;;;;4910698;28;20430;-63
2022/05/29 11:23:40;;;;;;;2.97;1.13;;;;;;;;;;4911717;28;20427;-62
2022/05/29 11:26:31;;;;;;;3.65;1.52;;;;;;;;;;4909447;28;20508;-63
2022/05/29 11:29:28;;;;;;;3.47;1.35;;;;;;;;;;4912407;28;20105;-63
2022/05/29 11:31:55;;;;;;;3.55;1.35;;;;;;;;;;4928960;28;20476;-62
2022/05/29 11:34:39;;;;;;;5.60;1.95;;;;;;;;;;4930380;28;20334;-63
2022/05/29 11:37:26;;;;;;;5.95;1.30;;;;;;;;;;4930416;28;20160;-63
2022/05/29 11:39:57;;;;;;;3.78;1.33;;;;;;;;;;4912662;28;20034;-63
2022/05/29 11:42:25;;;;;;;2.25;1.20;;;;;;;;;;4929781;28;20419;-63
2022/05/29 11:44:57;;;;;;;1.43;0.90;;;;;;;;;;4930387;28;20088;-62
2022/05/29 11:53:34;;;;;;;2.35;1.10;;;;;;;;;;4916108;28;20475;-62
2022/05/29 11:56:04;;;;;;;4.35;1.30;;;;;;;;;;4913030;28;20026;-64
2022/05/29 11:58:37;;;;;;;3.30;1.25;;;;;;;;;;4930277;28;20433;-63
2022/05/29 12:01:07;;;;;;;3.40;1.17;;;;;;;;;;4928265;28;20445;-63
2022/05/29 12:04:09;;;;;;;2.92;1.15;;;;;;;;;;4928492;28;20439;-63
2022/05/29 12:07:07;;;;;;;1.98;0.88;;;;;;;;;;4919363;28;20057;-64
2022/05/29 12:10:06;;;;;;;2.10;1.17;;;;;;;;;;4909591;28;20326;-63
2022/05/29 12:12:38;;;;;;;3.30;1.17;;;;;;;;;;4879610;28;20516;-63
2022/05/29 12:15:08;;;;;;;2.85;1.00;;;;;;;;;;4915989;28;20453;-63
2022/05/29 12:17:55;;;;;;;3.08;1.10;;;;;;;;;;4916150;28;20027;-63
2022/05/29 12:20:23;;;;;;;3.95;1.23;;;;;;;;;;4933329;28;20446;-63
2022/05/29 12:22:51;;;;;;;3.03;1.00;;;;;;;;;;4933335;28;20476;-63
2022/05/29 12:25:23;;;;;;;2.47;1.10;;;;;;;;;;4916187;28;20419;-63
2022/05/29 12:27:49;;;;;;;3.53;1.02;;;;;;;;;;4920958;28;20113;-64
2022/05/29 12:30:32;;;;;;;1.92;1.30;;;;;;;;;;4912754;28;20438;-62
2022/05/29 12:33:01;;;;;;;1.02;0.80;;;;;;;;;;4912288;28;20322;-63
2022/05/29 12:35:35;;;;;;;2.30;1.40;;;;;;;;;;4913952;28;20057;-62
2022/05/29 12:38:19;;;;;;;2.22;1.23;;;;;;;;;;4914144;28;20346;-62
2022/05/29 12:41:22;;;;;;;1.48;0.90;;;;;;;;;;4914630;28;20445;-63
2022/05/29 12:44:26;;;;;;;3.47;1.25;;;;;;;;;;4913976;28;20378;-63
2022/05/29 12:47:06;;;;;;;2.92;1.30;;;;;;;;;;4911604;28;20105;-64
2022/05/29 12:49:51;;;;;;;4.35;1.13;;;;;;;;;;4913395;28;20417;-63
2022/05/29 12:52:20;;;;;;;2.33;1.02;;;;;;;;;;4912010;28;20323;-63
2022/05/29 12:55:08;;;;;;;2.67;1.10;;;;;;;;;;4912371;28;20423;-63
2022/05/29 12:57:42;;;;;;;1.43;0.83;;;;;;;;;;4913298;28;20472;-63
2022/05/29 13:00:46;;;;;;;1.65;0.90;;;;;;;;;;4914120;28;20350;-63
2022/05/29 13:03:20;;;;;;;1.92;1.08;;;;;;;;;;4905902;28;20407;-62
2022/05/29 13:06:03;;;;;;;1.05;0.82;;;;;;;;;;4914101;28;20194;-62
2022/05/29 13:08:34;;;;;;;4.63;1.23;;;;;;;;;;4913328;28;20402;-64
2022/05/29 13:11:00;;;;;;;1.55;0.95;;;;;;;;;;4913563;28;20491;-62
2022/05/29 13:13:38;;;;;;;0.93;0.80;;;;;;;;;;4912785;28;20429;-63
2022/05/29 13:16:23;;;;;;;1.77;1.13;;;;;;;;;;4911996;28;20354;-62
2022/05/29 13:19:17;;;;;;;1.77;0.90;;;;;;;;;;4912790;28;20327;-62
2022/05/29 13:22:05;;;;;;;2.50;1.05;;;;;;;;;;4913421;28;20350;-62
2022/05/29 13:24:39;;;;;;;3.47;1.10;;;;;;;;;;4911341;28;20337;-63
2022/05/29 13:27:17;;;;;;;1.83;0.80;;;;;;;;;;4911295;28;20054;-63
2022/05/29 13:29:50;;;;;;;1.23;0.68;;;;;;;;;;4914069;28;20365;-62
2022/05/29 13:32:15;;;;;;;1.88;0.75;;;;;;;;;;4913528;28;20493;-63
2022/05/29 13:34:41;;;;;;;1.52;0.90;;;;;;;;;;4913922;28;20434;-63
2022/05/29 13:37:46;;;;;;;1.30;0.98;;;;;;;;;;4912468;28;20495;-63
2022/05/29 13:40:21;;;;;;;2.38;0.88;;;;;;;;;;4910151;28;20337;-62
2022/05/29 13:42:51;;;;;;;1.27;0.73;;;;;;;;;;4913044;28;20350;-63
2022/05/29 13:45:19;;;;;;;3.15;0.90;;;;;;;;;;4914282;28;20386;-63
2022/05/29 13:47:47;;;;;;;0.87;0.60;;;;;;;;;;4912973;28;20570;-62
2022/05/29 13:50:13;;;;;;;2.10;1.10;;;;;;;;;;4912343;28;20414;-63
2022/05/29 13:52:45;;;;;;;3.83;0.95;;;;;;;;;;4913745;28;20034;-62
2022/05/29 13:55:19;;;;;;;1.88;1.05;;;;;;;;;;4912209;28;20485;-63
2022/05/29 14:03:58;;;;;;;1.38;0.85;;;;;;;;;;4859846;28;20351;-63
2022/05/29 14:06:36;;;;;;;3.13;1.00;;;;;;;;;;4912233;28;20359;-63
2022/05/29 14:09:09;;;;;;;1.52;0.80;;;;;;;;;;4912185;28;20085;-63
2022/05/29 14:11:46;;;;;;;2.42;1.00;;;;;;;;;;4911967;28;20326;-63
2022/05/29 14:14:34;;;;;;;1.90;1.02;;;;;;;;;;4913364;28;20461;-63
2022/05/29 14:17:23;;;;;;;2.38;1.00;;;;;;;;;;4912083;28;20434;-63
2022/05/29 14:19:56;;;;;;;4.25;0.90;;;;;;;;;;4910253;28;20476;-63
2022/05/29 14:22:44;;;;;;;2.40;0.90;;;;;;;;;;4912587;28;20515;-63
2022/05/29 14:25:47;;;;;;;2.88;1.10;;;;;;;;;;4912538;28;20469;-63
2022/05/29 14:28:49;;;;;;;2.70;0.98;;;;;;;;;;4912183;28;20074;-63
2022/05/29 14:31:39;;;;;;;1.40;0.85;;;;;;;;;;4912725;28;20057;-63
2022/05/29 14:34:07;;;;;;;3.63;1.20;;;;;;;;;;4911825;28;20385;-64
2022/05/29 14:36:35;;;;;;;3.17;1.00;;;;;;;;;;4913178;28;20331;-63
2022/05/29 14:39:27;;;;;;;1.87;0.83;;;;;;;;;;4911573;28;20434;-63
2022/05/29 14:42:11;;;;;;;1.42;0.73;;;;;;;;;;4911472;28;20366;-63
2022/05/29 14:44:44;;;;;;;0.85;0.70;;;;;;;;;;4910999;28;20337;-62
2022/05/29 14:47:14;;;;;;;1.50;1.05;;;;;;;;;;4910205;28;20446;-62
2022/05/29 14:49:54;;;;;;;2.60;0.93;;;;;;;;;;4911899;28;20403;-63
2022/05/29 14:52:46;;;;;;;3.05;1.15;;;;;;;;;;4911447;28;20417;-63
2022/05/29 14:55:13;;;;;;;2.05;0.90;;;;;;;;;;4911398;28;20609;-62
2022/05/29 14:58:09;;;;;;;1.95;1.10;;;;;;;;;;4911610;28;20389;-63
2022/05/29 15:00:39;;;;;;;2.05;0.98;;;;;;;;;;4897566;28;20038;-63
2022/05/29 15:03:16;;;;;;;1.08;0.95;;;;;;;;;;4909794;28;20393;-62
2022/05/29 15:05:48;;;;;;;2.38;0.90;;;;;;;;;;4909404;28;20022;-62
2022/05/29 15:11:05;;;;;;;2.58;1.00;;;;;;;;;;4911362;28;20491;-62
2022/05/29 15:13:34;;;;;;;1.80;0.80;;;;;;;;;;4911492;28;20329;-63
2022/05/29 15:15:59;;;;;;;1.15;0.82;;;;;;;;;;4911779;28;20035;-62
2022/05/29 15:18:28;;;;;;;3.03;0.80;;;;;;;;;;4902375;28;20434;-63
2022/05/29 15:24:12;;;;;;;1.48;0.80;;;;;;;;;;4913346;28;20361;-63
2022/05/29 15:26:41;;;;;;;2.63;0.70;;;;;;;;;;4912260;28;20418;-62
2022/05/29 15:29:12;;;;;;;;;;;;;;;;;;4910234;28;20384;-63
2022/05/29 15:31:38;;;;;;;2.55;0.80;;;;;;;;;;4911288;28;20305;-63
2022/05/29 15:34:31;;;;;;;7.97;0.98;;;;;;;;;;4911266;28;20046;-63
2022/05/29 15:37:38;;;;;;;1.17;0.75;;;;;;;;;;4911169;28;20053;-62
2022/05/29 15:40:28;;;;;;;1.60;0.93;;;;;;;;;;4839044;29;20470;-63
2022/05/29 15:43:06;;;;;;;1.90;0.90;;;;;;;;;;4854815;29;20134;-63
2022/05/29 15:45:46;;;;;;;0.75;0.57;;;;;;;;;;4900790;28;20392;-63
2022/05/29 15:48:26;;;;;;;0.98;0.60;;;;;;;;;;4914547;28;20378;-63
2022/05/29 15:51:18;;;;;;;4.47;1.20;;;;;;;;;;4912690;28;20485;-63
2022/05/29 15:54:03;;;;;;;1.95;0.60;;;;;;;;;;4913448;28;20496;-63
2022/05/29 15:56:31;;;;;;;2.28;0.90;;;;;;;;;;4914462;28;20054;-63
2022/05/29 15:59:14;;;;;;;1.40;0.93;;;;;;;;;;4914798;28;20446;-62
2022/05/29 16:02:02;;;;;;;1.52;1.05;;;;;;;;;;4915468;28;20535;-62
2022/05/29 16:04:43;;;;;;;1.73;1.02;;;;;;;;;;4914796;28;20315;-63
2022/05/29 16:07:12;;;;;;;2.53;1.35;;;;;;;;;;4914236;28;20461;-62